createdAt,value
2018-11-14T00:00:41.103Z,12.23
2018-11-14T00:02:44.290Z,13.10
2018-11-14T00:04:47.558Z,13.00
2018-11-14T00:06:51.104Z,11.57
2018-11-14T00:08:54.263Z,11.57
2018-11-14T00:10:57.403Z,13.13
2018-11-14T00:13:00.691Z,12.70
2018-11-14T00:15:04.423Z,10.53
2018-11-14T00:17:07.638Z,12.10
2018-11-14T00:19:10.855Z,18.33
2018-11-14T00:21:14.194Z,10.63
2018-11-14T00:23:17.467Z,13.20
2018-11-14T00:25:20.727Z,10.97
2018-11-14T00:27:24.024Z,12.00
2018-11-14T00:29:27.328Z,10.77
2018-11-14T00:31:30.543Z,15.03
2018-11-14T00:36:08.913Z,14.20
2018-11-14T00:38:12.151Z,16.20
2018-11-14T00:40:16.808Z,14.27
2018-11-14T00:46:57.963Z,11.90
2018-11-14T00:49:01.246Z,12.73
2018-11-14T00:51:04.667Z,12.83
2018-11-14T00:53:07.987Z,17.77
2018-11-14T00:55:21.156Z,12.03
2018-11-14T00:57:24.373Z,13.37
2018-11-14T00:59:27.991Z,11.33
2018-11-14T01:01:31.262Z,9.97
2018-11-14T01:03:34.558Z,11.97
2018-11-14T01:05:37.798Z,13.07
2018-11-14T01:07:41.022Z,12.63
2018-11-14T01:09:44.286Z,14.63
2018-11-14T01:11:47.527Z,16.23
2018-11-14T01:13:50.807Z,12.83
2018-11-14T01:15:54.407Z,18.83
2018-11-14T01:17:57.651Z,17.23
2018-11-14T01:20:00.917Z,13.07
2018-11-14T01:22:04.255Z,15.27
2018-11-14T01:24:08.005Z,11.13
2018-11-14T01:26:11.558Z,14.30
2018-11-14T01:28:14.587Z,17.47
2018-11-14T01:30:19.899Z,19.40
2018-11-14T01:32:23.100Z,12.03
2018-11-14T01:34:26.377Z,13.50
2018-11-14T01:36:29.668Z,18.93
2018-11-14T01:38:32.879Z,19.63
2018-11-14T01:40:36.126Z,17.53
2018-11-14T01:42:44.303Z,19.83
2018-11-14T01:44:47.933Z,15.80
2018-11-14T01:46:51.326Z,14.80
2018-11-14T01:48:54.587Z,19.03
2018-11-14T01:50:58.111Z,14.20
2018-11-14T01:53:01.352Z,12.90
2018-11-14T01:55:05.219Z,16.53
2018-11-14T01:57:08.494Z,16.37
2018-11-14T01:59:11.754Z,20.53
2018-11-14T02:01:14.987Z,14.50
2018-11-14T02:03:18.297Z,19.60
2018-11-14T02:05:21.582Z,18.80
2018-11-14T02:07:25.250Z,15.87
2018-11-14T02:09:28.459Z,14.63
2018-11-14T02:11:31.662Z,20.17
2018-11-14T02:13:34.891Z,17.63
2018-11-14T02:15:38.134Z,23.87
2018-11-14T02:17:41.462Z,16.13
2018-11-14T02:19:44.720Z,21.70
2018-11-14T02:21:47.955Z,23.57
2018-11-14T02:23:51.252Z,18.10
2018-11-14T02:25:54.460Z,24.80
2018-11-14T02:27:57.712Z,16.43
2018-11-14T02:30:01.077Z,16.93
2018-11-14T02:32:04.835Z,18.30
2018-11-14T02:34:08.090Z,17.87
2018-11-14T02:36:11.255Z,17.07
2018-11-14T02:38:14.477Z,18.23
2018-11-14T02:40:18.967Z,23.73
2018-11-14T02:42:22.137Z,25.67
2018-11-14T02:44:25.399Z,25.50
2018-11-14T02:46:28.703Z,17.03
2018-11-14T02:48:33.967Z,19.83
2018-11-14T02:50:37.175Z,23.40
2018-11-14T02:52:40.387Z,19.20
2018-11-14T02:54:43.631Z,21.10
2018-11-14T02:56:46.883Z,14.07
2018-11-14T02:58:50.114Z,24.10
2018-11-14T03:00:53.277Z,18.93
2018-11-14T03:02:56.501Z,16.23
2018-11-14T03:04:59.678Z,20.30
2018-11-14T03:07:02.887Z,14.17
2018-11-14T03:09:07.818Z,19.30
2018-11-14T03:11:11.058Z,16.30
2018-11-14T03:13:14.260Z,21.40
2018-11-14T03:15:19.327Z,16.73
2018-11-14T03:17:22.509Z,19.53
2018-11-14T03:19:25.782Z,22.40
2018-11-14T03:21:29.050Z,18.67
2018-11-14T03:23:32.370Z,22.40
2018-11-14T03:25:35.854Z,29.67
2018-11-14T03:27:42.576Z,23.80
2018-11-14T03:29:45.812Z,21.30
2018-11-14T03:31:49.434Z,22.37
2018-11-14T03:33:52.734Z,21.10
2018-11-14T03:36:01.628Z,21.73
2018-11-14T03:38:05.388Z,20.53
2018-11-14T03:40:11.384Z,18.17
2018-11-14T03:42:14.656Z,20.27
2018-11-14T03:44:17.923Z,24.30
2018-11-14T03:46:21.182Z,24.70
2018-11-14T03:48:24.606Z,24.00
2018-11-14T03:50:27.879Z,24.67
2018-11-14T03:52:31.108Z,27.30
2018-11-14T03:54:34.398Z,26.00
2018-11-14T03:56:37.641Z,23.90
2018-11-14T03:58:40.910Z,24.83
2018-11-14T04:00:44.219Z,35.03
2018-11-14T04:02:47.432Z,26.33
2018-11-14T04:04:50.747Z,21.63
2018-11-14T04:06:53.980Z,29.30
2018-11-14T04:08:57.242Z,32.93
2018-11-14T04:11:00.454Z,27.70
2018-11-14T04:13:03.722Z,19.03
2018-11-14T04:15:08.244Z,20.90
2018-11-14T04:17:11.444Z,19.73
2018-11-14T04:19:14.717Z,15.67
2018-11-14T04:21:18.081Z,13.87
2018-11-14T04:23:21.252Z,15.67
2018-11-14T04:25:24.649Z,12.47
2018-11-14T04:27:27.843Z,13.23
2018-11-14T04:29:30.988Z,17.80
2018-11-14T04:31:34.177Z,14.80
2018-11-14T04:33:37.431Z,14.00
2018-11-14T04:35:40.632Z,22.47
2018-11-14T04:37:43.895Z,14.23
2018-11-14T04:39:47.085Z,16.13
2018-11-14T04:41:50.288Z,21.67
2018-11-14T04:43:53.429Z,25.47
2018-11-14T04:45:56.833Z,17.37
2018-11-14T04:48:00.140Z,18.13
2018-11-14T04:50:03.529Z,13.63
2018-11-14T04:52:06.788Z,13.70
2018-11-14T04:54:09.982Z,13.97
2018-11-14T04:56:13.182Z,13.23
2018-11-14T04:58:16.433Z,18.90
2018-11-14T05:00:20.762Z,24.23
2018-11-14T05:02:23.958Z,22.33
2018-11-14T05:04:27.153Z,22.00
2018-11-14T05:06:30.904Z,21.97
2018-11-14T05:08:34.098Z,24.90
2018-11-14T05:10:37.261Z,22.63
2018-11-14T05:12:40.621Z,27.53
2018-11-14T05:14:43.793Z,34.60
2018-11-14T05:16:47.000Z,34.60
2018-11-14T05:18:50.613Z,28.90
2018-11-14T05:20:53.804Z,35.73
2018-11-14T05:22:56.975Z,37.37
2018-11-14T05:25:00.150Z,36.23
2018-11-14T05:27:03.326Z,41.87
2018-11-14T05:29:06.441Z,37.40
2018-11-14T05:31:09.647Z,48.57
2018-11-14T05:33:12.809Z,38.20
2018-11-14T05:35:16.737Z,49.03
2018-11-14T05:37:19.945Z,45.73
2018-11-14T05:39:23.131Z,35.80
2018-11-14T05:41:26.389Z,44.77
2018-11-14T05:43:29.565Z,41.07
2018-11-14T05:45:32.815Z,45.70
2018-11-14T05:47:36.061Z,30.63
2018-11-14T05:49:39.309Z,25.67
2018-11-14T05:51:42.488Z,26.47
2018-11-14T05:53:45.597Z,23.80
2018-11-14T05:55:48.742Z,33.10
2018-11-14T05:57:52.998Z,24.43
2018-11-14T05:59:56.185Z,24.07
2018-11-14T06:01:59.345Z,23.70
2018-11-14T06:04:02.560Z,20.50
2018-11-14T06:06:05.750Z,24.30
2018-11-14T06:08:09.223Z,18.03
2018-11-14T06:10:12.792Z,26.30
2018-11-14T06:12:16.018Z,23.60
2018-11-14T06:14:19.190Z,27.80
2018-11-14T06:16:22.360Z,24.07
2018-11-14T06:18:25.581Z,19.13
2018-11-14T06:20:28.765Z,27.87
2018-11-14T06:22:31.903Z,25.17
2018-11-14T06:24:35.055Z,23.43
2018-11-14T06:26:38.231Z,19.77
2018-11-14T06:28:41.447Z,19.83
2018-11-14T06:30:44.733Z,29.40
2018-11-14T06:32:48.112Z,17.20
2018-11-14T06:34:51.302Z,23.93
2018-11-14T06:36:54.524Z,18.47
2018-11-14T06:38:57.697Z,20.53
2018-11-14T06:41:00.864Z,22.30
2018-11-14T06:43:04.498Z,24.50
2018-11-14T06:45:11.313Z,29.03
2018-11-14T06:47:14.480Z,25.73
2018-11-14T06:49:17.659Z,25.30
2018-11-14T06:51:20.830Z,26.73
2018-11-14T06:53:23.974Z,34.27
2018-11-14T06:55:27.171Z,26.20
2018-11-14T06:57:30.382Z,27.90
2018-11-14T06:59:33.579Z,29.80
2018-11-14T07:01:36.709Z,18.87
2018-11-14T07:03:39.894Z,25.87
2018-11-14T07:05:43.589Z,25.27
2018-11-14T07:07:46.881Z,22.60
2018-11-14T07:09:51.046Z,23.03
2018-11-14T07:11:54.280Z,24.93
2018-11-14T07:13:57.437Z,24.77
2018-11-14T07:16:00.637Z,28.10
2018-11-14T07:18:04.039Z,36.17
2018-11-14T07:20:12.758Z,24.70
2018-11-14T07:22:15.954Z,29.70
2018-11-14T07:24:19.392Z,23.90
2018-11-14T07:26:22.608Z,37.63
2018-11-14T07:28:25.858Z,31.27
2018-11-14T07:30:30.081Z,20.10
2018-11-14T07:32:33.269Z,25.60
2018-11-14T07:34:36.459Z,25.50
2018-11-14T07:36:39.626Z,28.17
2018-11-14T07:38:44.698Z,26.30
2018-11-14T07:40:47.866Z,26.73
2018-11-14T07:42:51.029Z,24.90
2018-11-14T07:44:54.287Z,23.57
2018-11-14T07:46:57.575Z,23.63
2018-11-14T07:49:00.909Z,20.80
2018-11-14T07:51:04.246Z,29.30
2018-11-14T07:53:07.447Z,30.87
2018-11-14T07:55:11.621Z,29.40
2018-11-14T07:57:14.909Z,26.23
2018-11-14T07:59:18.087Z,26.77
2018-11-14T08:01:21.368Z,25.20
2018-11-14T08:03:24.699Z,28.63
2018-11-14T08:05:27.925Z,24.47
2018-11-14T08:07:31.122Z,25.83
2018-11-14T08:09:34.312Z,24.80
2018-11-14T08:11:37.956Z,26.13
2018-11-14T08:13:42.841Z,20.60
2018-11-14T08:15:46.075Z,22.73
2018-11-14T08:17:49.654Z,27.17
2018-11-14T08:19:52.936Z,21.73
2018-11-14T08:21:56.144Z,24.27
2018-11-14T08:23:59.347Z,20.60
2018-11-14T08:26:02.547Z,19.57
2018-11-14T08:28:05.816Z,19.37
2018-11-14T08:30:09.914Z,20.10
2018-11-14T08:32:13.063Z,18.10
2018-11-14T08:34:16.221Z,16.97
2018-11-14T08:36:19.468Z,17.40
2018-11-14T08:38:22.667Z,22.13
2018-11-14T08:40:25.859Z,17.23
2018-11-14T08:45:09.800Z,20.57
2018-11-14T08:47:12.977Z,15.73
2018-11-14T08:49:16.190Z,14.20
2018-11-14T08:51:19.353Z,14.77
2018-11-14T08:53:22.514Z,16.27
2018-11-14T08:55:25.706Z,16.63
2018-11-14T09:03:07.612Z,12.53
2018-11-14T09:05:10.901Z,21.43
2018-11-14T09:07:14.118Z,14.30
2018-11-14T09:09:17.249Z,19.13
2018-11-14T09:11:20.869Z,18.50
2018-11-14T09:13:23.853Z,15.27
2018-11-14T09:15:26.969Z,13.40
2018-11-14T09:17:30.124Z,17.93
2018-11-14T09:19:33.598Z,16.53
2018-11-14T09:21:36.689Z,14.93
2018-11-14T09:23:39.850Z,13.67
2018-11-14T09:25:43.045Z,11.83
2018-11-14T09:27:46.153Z,16.80
2018-11-14T09:29:49.338Z,18.30
2018-11-14T09:31:52.930Z,18.00
2018-11-14T09:33:56.094Z,15.73
2018-11-14T09:35:59.216Z,13.70
2018-11-14T09:38:02.366Z,15.13
2018-11-14T09:40:07.491Z,14.83
2018-11-14T09:42:10.724Z,12.50
2018-11-14T09:44:13.869Z,12.27
2018-11-14T09:46:17.037Z,16.87
2018-11-14T09:48:20.147Z,18.27
2018-11-14T09:50:25.361Z,22.50
2018-11-14T09:52:28.753Z,12.30
2018-11-14T09:54:31.888Z,17.13
2018-11-14T09:56:35.012Z,13.37
2018-11-14T09:58:38.204Z,15.80
2018-11-14T10:00:41.353Z,22.20
2018-11-14T10:02:45.172Z,11.00
2018-11-14T10:04:48.320Z,12.63
2018-11-14T10:06:51.478Z,12.77
2018-11-14T10:08:54.650Z,14.47
2018-11-14T10:10:57.862Z,10.97
2018-11-14T10:13:01.001Z,14.83
2018-11-14T10:15:05.615Z,13.30
2018-11-14T10:17:08.765Z,14.07
2018-11-14T10:19:11.926Z,12.27
2018-11-14T10:21:15.160Z,10.50
2018-11-14T10:23:18.304Z,11.60
2018-11-14T10:25:21.533Z,12.23
2018-11-14T10:27:24.745Z,11.43
2018-11-14T10:29:27.888Z,18.13
2018-11-14T10:31:31.105Z,16.10
2018-11-14T10:33:34.217Z,15.70
2018-11-14T10:35:37.348Z,11.00
2018-11-14T10:37:40.901Z,11.67
2018-11-14T10:39:44.434Z,14.43
2018-11-14T10:41:47.569Z,12.30
2018-11-14T10:43:50.720Z,18.73
2018-11-14T10:45:53.901Z,14.23
2018-11-14T10:47:57.095Z,16.17
2018-11-14T10:50:00.200Z,11.80
2018-11-14T10:52:03.401Z,12.30
2018-11-14T10:54:06.517Z,15.17
2018-11-14T10:56:09.627Z,16.63
2018-11-14T10:58:12.947Z,15.07
2018-11-14T11:00:25.553Z,10.27
2018-11-14T11:02:34.455Z,11.37
2018-11-14T11:04:43.250Z,9.80
2018-11-14T11:06:52.014Z,15.47
2018-11-14T11:09:00.807Z,12.70
2018-11-14T11:11:09.855Z,15.73
2018-11-14T11:13:18.681Z,14.03
2018-11-14T11:15:26.410Z,14.83
2018-11-14T11:17:35.259Z,10.27
2018-11-14T11:19:38.434Z,18.63
2018-11-14T11:21:41.897Z,12.07
2018-11-14T11:23:45.042Z,11.70
2018-11-14T11:25:48.229Z,13.90
2018-11-14T11:27:51.433Z,16.23
2018-11-14T11:29:54.537Z,11.30
2018-11-14T11:31:57.721Z,15.67
2018-11-14T11:34:00.817Z,11.50
2018-11-14T11:36:03.989Z,9.90
2018-11-14T11:38:07.193Z,16.20
2018-11-14T11:40:10.340Z,13.07
2018-11-14T11:42:13.701Z,10.10
2018-11-14T11:44:16.915Z,15.30
2018-11-14T11:46:20.055Z,21.07
2018-11-14T11:48:23.699Z,9.23
2018-11-14T11:50:27.048Z,22.73
2018-11-14T11:52:30.221Z,15.87
2018-11-14T11:54:33.994Z,18.00
2018-11-14T11:56:37.447Z,18.60
2018-11-14T11:58:40.637Z,15.33
2018-11-14T12:00:43.897Z,13.90
2018-11-14T12:02:47.008Z,15.23
2018-11-14T12:04:50.200Z,10.70
2018-11-14T12:06:53.390Z,9.47
2018-11-14T12:08:56.543Z,11.70
2018-11-14T12:10:59.733Z,12.80
2018-11-14T12:13:03.027Z,13.00
2018-11-14T12:15:08.395Z,12.23
2018-11-14T12:17:11.698Z,10.43
2018-11-14T12:19:15.227Z,8.80
2018-11-14T12:21:18.368Z,9.97
2018-11-14T12:23:21.550Z,10.00
2018-11-14T12:25:24.770Z,15.23
2018-11-14T12:27:28.132Z,13.27
2018-11-14T12:29:31.289Z,11.87
2018-11-14T12:31:34.511Z,10.33
2018-11-14T12:33:37.669Z,9.43
2018-11-14T12:35:41.031Z,13.40
2018-11-14T12:37:44.310Z,10.40
2018-11-14T12:39:47.545Z,10.27
2018-11-14T12:41:50.777Z,14.20
2018-11-14T12:43:53.936Z,10.50
2018-11-14T12:45:57.157Z,13.17
2018-11-14T12:48:00.381Z,9.40
2018-11-14T12:50:03.738Z,18.10
2018-11-14T12:52:06.962Z,10.33
2018-11-14T12:54:10.289Z,12.97
2018-11-14T12:56:13.500Z,7.97
2018-11-14T12:58:16.680Z,7.87
2018-11-14T13:00:20.692Z,7.87
2018-11-14T13:02:23.966Z,9.53
2018-11-14T13:04:27.157Z,7.30
2018-11-14T13:06:30.721Z,11.37
2018-11-14T13:08:33.914Z,9.40
2018-11-14T13:10:37.097Z,8.30
2018-11-14T13:12:40.789Z,14.80
2018-11-14T13:14:44.060Z,6.83
2018-11-14T13:16:47.219Z,11.00
2018-11-14T13:18:50.897Z,9.90
2018-11-14T13:20:54.069Z,6.47
2018-11-14T13:22:57.240Z,7.87
2018-11-14T13:25:00.381Z,10.20
2018-11-14T13:27:03.669Z,6.33
2018-11-14T13:29:06.871Z,11.90
2018-11-14T13:31:10.044Z,7.73
2018-11-14T13:33:13.237Z,7.50
2018-11-14T13:35:17.661Z,7.50
2018-11-14T13:37:20.714Z,5.40
2018-11-14T13:39:23.899Z,9.17
2018-11-14T13:41:27.065Z,9.37
2018-11-14T13:43:30.244Z,6.83
2018-11-14T13:45:33.381Z,9.73
2018-11-14T13:47:36.863Z,6.87
2018-11-14T13:49:40.473Z,10.73
2018-11-14T13:51:43.465Z,8.20
2018-11-14T13:53:46.557Z,8.67
2018-11-14T13:55:49.714Z,5.63
2018-11-14T13:57:52.916Z,6.30
2018-11-14T13:59:56.057Z,8.60
2018-11-14T14:01:59.581Z,7.70
2018-11-14T14:04:02.718Z,11.13
2018-11-14T14:06:05.886Z,9.83
2018-11-14T14:08:09.389Z,7.50
2018-11-14T14:10:13.760Z,7.67
2018-11-14T14:12:16.896Z,8.07
2018-11-14T14:14:20.448Z,7.30
2018-11-14T14:16:23.660Z,8.30
2018-11-14T14:18:26.749Z,6.90
2018-11-14T14:20:30.028Z,8.73
2018-11-14T14:22:33.153Z,10.73
2018-11-14T14:24:36.280Z,7.37
2018-11-14T14:26:39.606Z,5.87
2018-11-14T14:28:42.730Z,12.87
2018-11-14T14:30:45.976Z,10.33
2018-11-14T14:32:49.429Z,9.23
2018-11-14T14:34:52.697Z,11.30
2018-11-14T14:36:56.058Z,9.07
2018-11-14T14:38:59.261Z,10.17
2018-11-14T14:41:02.465Z,6.60
2018-11-14T14:43:05.739Z,24.40
2018-11-14T14:45:10.177Z,10.23
2018-11-14T14:47:13.373Z,9.43
2018-11-14T14:49:16.558Z,12.73
2018-11-14T14:51:19.743Z,9.77
2018-11-14T14:53:23.016Z,9.63
2018-11-14T14:55:26.269Z,8.77
2018-11-14T14:57:29.544Z,8.50
2018-11-14T14:59:32.759Z,9.00
2018-11-14T15:01:36.319Z,7.90
2018-11-14T15:03:39.698Z,7.60
2018-11-14T15:05:42.764Z,9.93
2018-11-14T15:07:45.977Z,5.70
2018-11-14T15:09:52.234Z,5.57
2018-11-14T15:11:55.421Z,7.20
2018-11-14T15:13:58.661Z,5.00
2018-11-14T15:16:01.905Z,12.67
2018-11-14T15:18:05.173Z,9.60
2018-11-14T15:20:15.123Z,10.90
2018-11-14T15:22:18.289Z,9.80
2018-11-14T15:24:21.462Z,7.20
2018-11-14T15:26:24.666Z,7.80
2018-11-14T15:28:27.887Z,12.27
2018-11-14T15:30:31.202Z,13.73
2018-11-14T15:32:34.347Z,9.40
2018-11-14T15:34:37.657Z,13.43
2018-11-14T15:36:40.801Z,6.77
2018-11-14T15:38:46.132Z,9.30
2018-11-14T15:40:49.577Z,7.60
2018-11-14T15:42:52.816Z,12.13
2018-11-14T15:44:55.986Z,10.73
2018-11-14T15:46:59.109Z,6.37
2018-11-14T15:49:02.237Z,11.17
2018-11-14T15:51:05.485Z,6.90
2018-11-14T15:53:08.760Z,9.10
2018-11-14T15:55:12.636Z,6.87
2018-11-14T15:57:15.957Z,8.00
2018-11-14T15:59:19.137Z,14.73
2018-11-14T16:01:22.312Z,8.07
2018-11-14T16:03:25.487Z,8.23
2018-11-14T16:05:29.796Z,9.70
2018-11-14T16:07:33.071Z,9.60
2018-11-14T16:09:36.195Z,7.10
2018-11-14T16:11:39.711Z,13.83
2018-11-14T16:13:47.480Z,12.63
2018-11-14T16:15:50.681Z,8.07
2018-11-14T16:17:53.900Z,14.20
2018-11-14T16:19:57.030Z,10.20
2018-11-14T16:22:00.525Z,8.87
2018-11-14T16:24:03.770Z,13.50
2018-11-14T16:26:06.901Z,10.00
2018-11-14T16:28:10.099Z,9.53
2018-11-14T16:30:19.484Z,9.63
2018-11-14T16:32:22.638Z,10.30
2018-11-14T16:34:26.185Z,9.73
2018-11-14T16:36:29.387Z,10.83
2018-11-14T16:38:32.588Z,12.93
2018-11-14T16:40:35.941Z,10.23
2018-11-14T16:42:59.973Z,11.83
2018-11-14T16:45:03.206Z,14.50
2018-11-14T16:47:06.974Z,14.67
2018-11-14T16:49:10.206Z,8.93
2018-11-14T16:51:13.602Z,12.40
2018-11-14T16:53:16.808Z,11.90
2018-11-14T16:55:20.835Z,12.13
2018-11-14T17:00:12.694Z,8.53
2018-11-14T17:02:15.862Z,6.70
2018-11-14T17:04:19.345Z,8.90
2018-11-14T17:06:22.553Z,8.93
2018-11-14T17:08:25.723Z,7.47
2018-11-14T17:10:29.247Z,7.53
2018-11-14T17:12:32.397Z,9.87
2018-11-14T17:14:35.584Z,9.90
2018-11-14T17:16:38.920Z,6.80
2018-11-14T17:18:42.115Z,17.93
2018-11-14T17:20:45.307Z,6.87
2018-11-14T17:22:49.158Z,8.30
2018-11-14T17:24:52.406Z,10.50
2018-11-14T17:26:55.576Z,11.37
2018-11-14T17:28:58.753Z,14.00
2018-11-14T17:31:01.939Z,10.13
2018-11-14T17:33:05.651Z,9.13
2018-11-14T17:35:10.093Z,8.80
2018-11-14T17:37:13.311Z,7.83
2018-11-14T17:39:16.612Z,11.10
2018-11-14T17:41:19.873Z,10.50
2018-11-14T17:43:22.992Z,8.03
2018-11-14T17:45:28.317Z,8.10
2018-11-14T17:47:31.501Z,6.80
2018-11-14T17:49:34.692Z,8.23
2018-11-14T17:51:37.817Z,9.37
2018-11-14T17:53:40.985Z,10.13
2018-11-14T17:55:44.125Z,11.90
2018-11-14T17:57:47.242Z,13.10
2018-11-14T17:59:50.554Z,13.53
2018-11-14T18:01:53.769Z,16.60
2018-11-14T18:03:57.012Z,13.17
2018-11-14T18:06:00.189Z,17.83
2018-11-14T18:08:03.359Z,14.57
2018-11-14T18:10:08.741Z,15.57
2018-11-14T18:12:11.912Z,15.03
2018-11-14T18:14:15.174Z,13.30
2018-11-14T18:16:18.315Z,13.10
2018-11-14T18:18:21.966Z,13.43
2018-11-14T18:20:26.631Z,12.43
2018-11-14T18:22:29.814Z,10.67
2018-11-14T18:24:33.013Z,11.83
2018-11-14T18:26:36.201Z,13.30
2018-11-14T18:28:39.733Z,20.43
2018-11-14T18:30:43.064Z,26.30
2018-11-14T18:32:46.189Z,26.27
2018-11-14T18:34:49.674Z,14.40
2018-11-14T18:36:52.797Z,14.40
2018-11-14T18:38:55.946Z,12.90
2018-11-14T18:40:59.409Z,10.10
2018-11-14T18:43:02.653Z,11.00
2018-11-14T18:45:14.070Z,11.20
2018-11-14T18:47:17.497Z,14.30
2018-11-14T18:49:20.608Z,14.70
2018-11-14T18:51:23.729Z,16.10
2018-11-14T18:53:27.145Z,20.90
2018-11-14T18:55:31.649Z,8.40
2018-11-14T18:57:34.860Z,12.30
2018-11-14T18:59:38.037Z,8.77
2018-11-14T19:01:41.169Z,8.70
2018-11-14T19:03:44.493Z,7.70
2018-11-14T19:05:47.686Z,9.50
2018-11-14T19:07:50.881Z,15.87
2018-11-14T19:09:54.052Z,11.27
2018-11-14T19:11:57.289Z,12.13
2018-11-14T19:14:00.440Z,9.27
2018-11-14T19:16:03.734Z,11.83
2018-11-14T19:18:06.914Z,8.30
2018-11-14T19:20:12.792Z,11.87
2018-11-14T19:22:16.011Z,8.90
2018-11-14T19:24:19.224Z,8.00
2018-11-14T19:26:22.365Z,11.60
2018-11-14T19:28:25.864Z,6.80
2018-11-14T19:30:30.188Z,5.50
2018-11-14T19:32:33.334Z,8.37
2018-11-14T19:34:36.529Z,14.90
2018-11-14T19:36:39.769Z,13.67
2018-11-14T19:38:42.969Z,13.57
2018-11-14T19:40:46.213Z,9.07
2018-11-14T19:42:51.582Z,13.53
2018-11-14T19:44:54.734Z,9.60
2018-11-14T19:46:57.957Z,9.03
2018-11-14T19:49:01.119Z,9.00
2018-11-14T19:51:04.913Z,11.37
2018-11-14T19:53:08.141Z,11.13
2018-11-14T19:55:12.688Z,18.37
2018-11-14T19:57:15.850Z,11.37
2018-11-14T19:59:19.370Z,19.60
2018-11-14T20:01:22.493Z,15.67
2018-11-14T20:03:25.680Z,15.60
2018-11-14T20:05:28.877Z,14.63
2018-11-14T20:07:32.010Z,18.03
2018-11-14T20:09:35.162Z,13.83
2018-11-14T20:11:38.369Z,18.37
2018-11-14T20:13:41.566Z,16.30
2018-11-14T20:15:44.680Z,14.20
2018-11-14T20:17:48.442Z,15.13
2018-11-14T20:19:51.594Z,14.03
2018-11-14T20:21:54.704Z,13.67
2018-11-14T20:23:58.009Z,16.27
2018-11-14T20:26:01.115Z,11.93
2018-11-14T20:28:04.370Z,22.87
2018-11-14T20:30:10.860Z,12.33
2018-11-14T20:32:14.086Z,10.53
2018-11-14T20:34:17.170Z,9.87
2018-11-14T20:36:20.373Z,10.97
2018-11-14T20:38:23.598Z,15.60
2018-11-14T20:40:27.201Z,8.93
2018-11-14T20:42:30.442Z,14.60
2018-11-14T20:44:33.594Z,16.27
2018-11-14T20:46:37.138Z,16.73
2018-11-14T20:48:40.378Z,10.43
2018-11-14T20:50:43.590Z,13.20
2018-11-14T20:52:48.716Z,15.73
2018-11-14T20:54:51.956Z,17.07
2018-11-14T20:56:55.127Z,13.97
2018-11-14T20:58:58.344Z,18.13
2018-11-14T21:01:01.569Z,12.77
2018-11-14T21:03:05.756Z,9.33
2018-11-14T21:05:10.250Z,8.33
2018-11-14T21:07:13.467Z,6.97
2018-11-14T21:09:16.712Z,6.80
2018-11-14T21:11:19.932Z,10.07
2018-11-14T21:13:23.127Z,10.70
2018-11-14T21:15:28.788Z,5.87
2018-11-14T21:17:31.842Z,9.20
2018-11-14T21:19:35.045Z,7.20
2018-11-14T21:21:38.129Z,10.73
2018-11-14T21:23:41.354Z,8.03
2018-11-14T21:25:44.581Z,7.87
2018-11-14T21:27:48.357Z,8.43
2018-11-14T21:29:51.555Z,9.93
2018-11-14T21:31:54.731Z,26.93
2018-11-14T21:33:58.008Z,16.40
2018-11-14T21:36:01.247Z,9.90
2018-11-14T21:38:06.036Z,9.17
2018-11-14T21:40:10.354Z,9.33
2018-11-14T21:42:13.812Z,9.63
2018-11-14T21:44:16.963Z,9.03
2018-11-14T21:46:20.158Z,8.37
2018-11-14T21:48:23.443Z,9.53
2018-11-14T21:50:27.618Z,8.57
2018-11-14T21:52:30.973Z,8.73
2018-11-14T21:54:34.258Z,8.30
2018-11-14T21:56:37.406Z,9.33
2018-11-14T21:58:40.569Z,7.73
2018-11-14T22:00:43.734Z,9.40
2018-11-14T22:02:48.184Z,8.13
2018-11-14T22:04:51.436Z,7.27
2018-11-14T22:06:54.605Z,12.13
2018-11-14T22:08:57.756Z,10.30
2018-11-14T22:11:01.058Z,12.50
2018-11-14T22:13:04.325Z,8.90
2018-11-14T22:15:08.440Z,13.13
2018-11-14T22:17:11.670Z,24.33
2018-11-14T22:19:14.914Z,9.73
2018-11-14T22:21:18.196Z,20.63
2018-11-14T22:23:21.455Z,16.43
2018-11-14T22:25:25.487Z,6.30
2018-11-14T22:27:28.838Z,9.20
2018-11-14T22:29:32.054Z,6.97
2018-11-14T22:31:35.229Z,7.20
2018-11-14T22:33:38.593Z,9.33
2018-11-14T22:35:41.798Z,7.30
2018-11-14T22:37:44.981Z,10.60
2018-11-14T22:39:48.149Z,12.13
2018-11-14T22:41:51.378Z,12.60
2018-11-14T22:43:54.520Z,13.37
2018-11-14T22:45:57.682Z,10.23
2018-11-14T22:48:00.965Z,8.30
2018-11-14T22:50:05.227Z,10.00
2018-11-14T22:52:08.373Z,9.40
2018-11-14T22:54:11.527Z,9.07
2018-11-14T22:56:14.707Z,11.43
2018-11-14T22:58:17.948Z,12.37
2018-11-14T23:00:25.376Z,9.10
2018-11-14T23:02:28.517Z,8.70
2018-11-14T23:04:31.710Z,7.23
2018-11-14T23:06:34.882Z,11.57
2018-11-14T23:08:38.044Z,7.97
2018-11-14T23:10:41.281Z,7.97
2018-11-14T23:12:44.472Z,10.50
2018-11-14T23:14:47.619Z,11.57
2018-11-14T23:16:50.785Z,8.40
2018-11-14T23:18:54.182Z,9.90
2018-11-14T23:20:57.397Z,16.23
2018-11-14T23:23:00.638Z,10.17
2018-11-14T23:25:04.100Z,10.43
2018-11-14T23:27:07.314Z,11.67
2018-11-14T23:29:10.433Z,10.07
2018-11-14T23:31:13.636Z,10.20
2018-11-14T23:33:16.851Z,9.53
2018-11-14T23:35:22.275Z,7.50
2018-11-14T23:37:25.460Z,32.17
2018-11-14T23:39:28.582Z,8.40
2018-11-14T23:41:31.768Z,6.67
2018-11-14T23:43:34.949Z,5.23
2018-11-14T23:45:38.146Z,5.20
2018-11-14T23:47:42.117Z,7.33
2018-11-14T23:49:45.582Z,6.53
2018-11-14T23:51:48.749Z,7.93
2018-11-14T23:53:51.921Z,8.13
2018-11-14T23:55:55.079Z,7.00
2018-11-14T23:57:58.596Z,9.63
